createdAt,value
2022-12-23T00:00:32.975Z,12.90
2022-12-23T00:03:02.256Z,14.10
2022-12-23T00:05:37.445Z,12.15
2022-12-23T00:08:07.888Z,14.70
2022-12-23T00:10:39.457Z,14.85
2022-12-23T00:13:26.138Z,12.68
2022-12-23T00:16:04.644Z,13.35
2022-12-23T00:18:34.480Z,12.05
2022-12-23T00:21:08.624Z,17.27
2022-12-23T00:23:40.772Z,15.80
2022-12-23T00:26:15.587Z,14.82
2022-12-23T00:28:44.990Z,16.15
2022-12-23T00:31:18.386Z,12.88
2022-12-23T00:33:49.929Z,14.18
2022-12-23T00:36:21.361Z,16.63
2022-12-23T00:39:08.343Z,13.65
2022-12-23T00:41:54.962Z,12.30
2022-12-23T00:44:24.144Z,14.05
2022-12-23T00:47:12.356Z,12.93
2022-12-23T00:49:58.532Z,10.27
2022-12-23T00:52:44.871Z,11.73
2022-12-23T00:55:30.994Z,12.50
2022-12-23T00:58:17.677Z,12.32
2022-12-23T01:01:04.356Z,14.25
2022-12-23T01:03:52.056Z,14.35
2022-12-23T01:06:21.137Z,17.02
2022-12-23T01:08:50.107Z,19.30
2022-12-23T01:11:19.139Z,13.35
2022-12-23T01:13:48.106Z,13.48
2022-12-23T01:16:17.996Z,15.68
2022-12-23T01:18:48.611Z,11.35
2022-12-23T01:21:17.961Z,12.30
2022-12-23T01:23:47.013Z,13.32
2022-12-23T01:26:16.048Z,13.57
2022-12-23T01:28:45.075Z,14.60
2022-12-23T01:31:14.112Z,13.07
2022-12-23T01:33:43.146Z,11.55
2022-12-23T01:36:31.357Z,18.90
2022-12-23T01:39:17.423Z,15.60
2022-12-23T01:42:03.699Z,15.75
2022-12-23T01:45:18.896Z,13.32
2022-12-23T01:48:12.095Z,14.48
2022-12-23T01:51:03.276Z,14.77
2022-12-23T01:53:53.997Z,14.15
2022-12-23T01:56:44.612Z,13.75
2022-12-23T01:59:33.323Z,17.48
2022-12-23T02:02:20.467Z,18.92
2022-12-23T02:05:08.663Z,16.38
2022-12-23T02:07:55.504Z,15.98
2022-12-23T02:10:52.595Z,16.17
2022-12-23T02:13:50.519Z,21.48
2022-12-23T02:17:07.659Z,26.27
2022-12-23T02:20:28.682Z,17.05
2022-12-23T02:23:42.323Z,16.40
2022-12-23T02:26:53.045Z,17.25
2022-12-23T02:30:08.796Z,18.55
2022-12-23T02:33:08.849Z,25.45
2022-12-23T02:36:03.584Z,29.35
2022-12-23T02:38:58.424Z,20.88
2022-12-23T02:41:50.175Z,17.83
2022-12-23T02:44:44.936Z,19.10
2022-12-23T02:47:38.091Z,19.95
2022-12-23T02:50:32.916Z,18.88
2022-12-23T02:53:25.811Z,17.25
2022-12-23T02:56:14.825Z,18.73
2022-12-23T02:59:05.447Z,19.55
2022-12-23T03:01:53.489Z,18.67
2022-12-23T03:04:40.526Z,19.65
2022-12-23T03:07:34.914Z,18.77
2022-12-23T03:10:29.440Z,22.23
2022-12-23T03:13:27.952Z,21.17
2022-12-23T03:16:26.081Z,19.98
2022-12-23T03:19:26.833Z,21.10
2022-12-23T03:22:23.692Z,16.15
2022-12-23T03:25:19.333Z,16.90
2022-12-23T03:28:13.282Z,23.77
2022-12-23T03:31:03.043Z,22.63
2022-12-23T03:33:53.068Z,23.65
2022-12-23T03:36:43.461Z,22.83
2022-12-23T03:39:34.647Z,25.05
2022-12-23T03:42:27.926Z,22.75
2022-12-23T03:45:38.278Z,23.98
2022-12-23T03:48:28.624Z,19.48
2022-12-23T03:51:18.325Z,21.98
2022-12-23T03:54:10.424Z,20.75
2022-12-23T03:57:00.100Z,24.23
2022-12-23T03:59:50.470Z,25.42
2022-12-23T04:02:45.840Z,27.65
2022-12-23T04:05:41.250Z,27.17
2022-12-23T04:08:32.596Z,23.20
2022-12-23T04:11:20.551Z,22.77
2022-12-23T04:14:07.357Z,22.98
2022-12-23T04:16:55.241Z,23.08
2022-12-23T04:19:42.077Z,22.23
2022-12-23T04:22:28.611Z,20.15
2022-12-23T04:25:14.791Z,22.63
2022-12-23T04:28:01.224Z,20.33
2022-12-23T04:30:47.725Z,20.55
2022-12-23T04:33:35.544Z,20.73
2022-12-23T04:36:21.734Z,18.75
2022-12-23T04:39:08.034Z,19.35
2022-12-23T04:41:54.768Z,18.38
2022-12-23T04:44:41.063Z,20.38
2022-12-23T04:47:27.179Z,22.17
2022-12-23T04:50:14.906Z,22.15
2022-12-23T04:53:01.517Z,20.83
2022-12-23T04:55:47.900Z,20.10
2022-12-23T04:58:34.103Z,16.88
2022-12-23T05:01:21.345Z,17.98
2022-12-23T05:04:07.584Z,21.02
2022-12-23T05:06:56.484Z,20.25
2022-12-23T05:09:42.586Z,20.52
2022-12-23T05:12:28.855Z,17.65
2022-12-23T05:15:15.446Z,20.83
2022-12-23T05:18:01.764Z,19.40
2022-12-23T05:20:48.137Z,20.58
2022-12-23T05:23:36.142Z,23.15
2022-12-23T05:26:22.935Z,22.67
2022-12-23T05:29:09.211Z,19.63
2022-12-23T05:31:56.026Z,19.48
2022-12-23T05:34:42.129Z,16.05
2022-12-23T05:37:28.333Z,20.95
2022-12-23T05:40:21.596Z,19.50
2022-12-23T05:43:10.038Z,19.83
2022-12-23T05:45:56.876Z,17.55
2022-12-23T05:48:43.198Z,19.30
2022-12-23T05:51:29.687Z,19.90
2022-12-23T05:54:16.578Z,18.90
2022-12-23T05:57:04.504Z,23.10
2022-12-23T05:59:51.461Z,18.85
2022-12-23T06:02:38.282Z,21.42
2022-12-23T06:05:25.831Z,26.35
2022-12-23T06:08:12.277Z,17.55
2022-12-23T06:10:58.996Z,20.00
2022-12-23T06:13:46.998Z,16.77
2022-12-23T06:16:33.514Z,18.15
2022-12-23T06:19:19.870Z,21.85
2022-12-23T06:22:07.523Z,18.63
2022-12-23T06:24:53.956Z,19.27
2022-12-23T06:27:40.620Z,21.35
2022-12-23T06:30:30.385Z,16.60
2022-12-23T06:33:16.655Z,17.38
2022-12-23T06:36:03.429Z,17.58
2022-12-23T06:38:49.861Z,15.93
2022-12-23T06:41:36.011Z,17.73
2022-12-23T06:44:23.366Z,19.27
2022-12-23T06:47:11.634Z,17.70
2022-12-23T06:49:58.280Z,18.13
2022-12-23T06:52:44.750Z,18.20
2022-12-23T06:55:31.474Z,20.40
2022-12-23T06:58:17.781Z,21.63
2022-12-23T07:01:04.183Z,18.75
2022-12-23T07:03:52.085Z,19.85
2022-12-23T07:06:39.184Z,20.83
2022-12-23T07:09:25.285Z,23.65
2022-12-23T07:12:11.675Z,19.02
2022-12-23T07:14:57.868Z,22.42
2022-12-23T07:17:44.506Z,22.90
2022-12-23T07:20:33.175Z,24.05
2022-12-23T07:23:19.500Z,19.50
2022-12-23T07:26:05.844Z,22.23
2022-12-23T07:28:52.116Z,25.77
2022-12-23T07:31:41.130Z,19.65
2022-12-23T07:34:28.103Z,26.35
2022-12-23T07:37:15.725Z,29.48
2022-12-23T07:40:08.007Z,23.45
2022-12-23T07:42:55.143Z,23.33
2022-12-23T07:45:41.289Z,22.42
2022-12-23T07:48:28.119Z,21.30
2022-12-23T07:51:18.919Z,25.45
2022-12-23T07:54:09.087Z,25.98
2022-12-23T07:56:55.512Z,23.13
2022-12-23T07:59:44.183Z,27.00
2022-12-23T08:02:30.625Z,23.45
2022-12-23T08:05:17.091Z,21.75
2022-12-23T08:08:03.385Z,28.60
2022-12-23T08:10:50.932Z,24.27
2022-12-23T08:13:37.293Z,23.55
2022-12-23T08:16:25.073Z,30.30
2022-12-23T08:19:11.241Z,29.13
2022-12-23T08:21:57.481Z,25.45
2022-12-23T08:24:43.919Z,23.95
2022-12-23T08:27:31.603Z,28.45
2022-12-23T08:30:17.931Z,33.80
2022-12-23T08:33:04.122Z,21.45
2022-12-23T08:35:50.388Z,26.38
2022-12-23T08:38:36.773Z,26.70
2022-12-23T08:41:28.057Z,23.25
2022-12-23T08:44:16.252Z,29.00
2022-12-23T08:47:03.103Z,28.63
2022-12-23T08:49:49.431Z,26.65
2022-12-23T08:52:35.621Z,26.27
2022-12-23T08:55:23.064Z,30.67
2022-12-23T08:58:09.516Z,26.30
2022-12-23T09:00:58.189Z,29.35
2022-12-23T09:03:44.505Z,26.25
2022-12-23T09:06:33.919Z,24.15
2022-12-23T09:09:20.198Z,23.13
2022-12-23T09:12:06.590Z,26.02
2022-12-23T09:14:52.902Z,25.63
2022-12-23T09:17:40.416Z,25.35
2022-12-23T09:20:27.931Z,29.73
2022-12-23T09:23:14.072Z,30.13
2022-12-23T09:26:00.976Z,19.13
2022-12-23T09:28:47.552Z,25.17
2022-12-23T09:31:37.381Z,23.92
2022-12-23T09:34:25.769Z,26.30
2022-12-23T09:37:12.172Z,26.17
2022-12-23T09:39:58.487Z,25.60
2022-12-23T09:43:03.523Z,19.63
2022-12-23T09:46:09.001Z,24.45
2022-12-23T09:49:00.126Z,23.48
2022-12-23T09:51:49.120Z,26.27
2022-12-23T09:54:40.436Z,25.50
2022-12-23T09:57:38.993Z,24.85
2022-12-23T10:00:31.644Z,31.67
2022-12-23T10:03:37.220Z,26.63
2022-12-23T10:06:30.058Z,26.52
2022-12-23T10:09:20.909Z,23.10
2022-12-23T10:12:07.837Z,21.08
2022-12-23T10:14:56.333Z,26.80
2022-12-23T10:17:47.855Z,21.30
2022-12-23T10:20:38.338Z,21.48
2022-12-23T10:23:31.714Z,21.13
2022-12-23T10:26:22.721Z,21.33
2022-12-23T10:28:56.231Z,24.77
2022-12-23T10:31:40.334Z,20.73
2022-12-23T10:34:19.032Z,24.08
2022-12-23T10:36:55.317Z,19.55
2022-12-23T10:39:34.250Z,21.77
2022-12-23T10:42:15.153Z,24.45
2022-12-23T10:44:57.139Z,24.70
2022-12-23T10:47:39.430Z,22.88
2022-12-23T10:50:27.458Z,23.45
2022-12-23T10:52:59.893Z,26.27
2022-12-23T10:55:36.347Z,23.15
2022-12-23T10:58:13.300Z,26.33
2022-12-23T11:00:51.329Z,23.67
2022-12-23T11:03:24.224Z,27.50
2022-12-23T11:05:54.945Z,19.58
2022-12-23T11:08:26.597Z,24.80
2022-12-23T11:10:56.350Z,24.42
2022-12-23T11:13:35.757Z,21.13
2022-12-23T11:16:19.959Z,20.17
2022-12-23T11:18:58.162Z,19.45
2022-12-23T11:21:27.559Z,21.50
2022-12-23T11:24:18.988Z,19.35
2022-12-23T11:26:50.879Z,15.07
2022-12-23T11:29:44.212Z,21.27
2022-12-23T11:32:36.123Z,18.33
2022-12-23T11:35:23.665Z,20.55
2022-12-23T11:38:10.522Z,15.48
2022-12-23T11:40:57.295Z,15.15
2022-12-23T11:43:45.825Z,17.55
2022-12-23T11:46:36.448Z,16.25
2022-12-23T11:49:34.327Z,14.50
2022-12-23T11:52:31.329Z,15.48
2022-12-23T11:55:19.882Z,15.55
2022-12-23T11:58:07.708Z,15.23
2022-12-23T12:00:59.784Z,18.50
2022-12-23T12:03:54.410Z,17.35
2022-12-23T12:06:41.680Z,16.70
2022-12-23T12:09:32.613Z,14.07
2022-12-23T12:12:24.419Z,18.45
2022-12-23T12:15:13.065Z,17.70
2022-12-23T12:18:05.679Z,14.55
2022-12-23T12:20:58.106Z,14.57
2022-12-23T12:24:08.405Z,15.45
2022-12-23T12:27:01.255Z,14.00
2022-12-23T12:29:56.179Z,15.30
2022-12-23T12:32:58.169Z,17.85
2022-12-23T12:35:54.250Z,14.00
2022-12-23T12:38:46.230Z,17.10
2022-12-23T12:41:37.221Z,15.07
2022-12-23T12:44:48.768Z,12.05
2022-12-23T12:47:53.934Z,18.23
2022-12-23T12:50:45.778Z,16.67
2022-12-23T12:53:41.492Z,16.33
2022-12-23T12:56:38.999Z,18.83
2022-12-23T12:59:25.216Z,17.92
2022-12-23T13:02:24.205Z,18.30
2022-12-23T13:05:30.367Z,15.82
2022-12-23T13:08:31.351Z,15.70
2022-12-23T13:11:28.356Z,16.40
2022-12-23T13:14:23.949Z,17.83
2022-12-23T13:17:18.044Z,16.95
2022-12-23T13:20:10.086Z,15.48
2022-12-23T13:23:10.193Z,15.60
2022-12-23T13:26:08.837Z,14.35
2022-12-23T13:29:03.099Z,16.40
2022-12-23T13:32:02.521Z,12.80
2022-12-23T13:34:57.009Z,17.63
2022-12-23T13:37:51.149Z,15.75
2022-12-23T13:40:53.015Z,13.90
2022-12-23T13:43:41.748Z,14.30
2022-12-23T13:46:34.696Z,11.60
2022-12-23T13:49:28.954Z,11.95
2022-12-23T13:52:24.151Z,8.90
2022-12-23T13:55:19.593Z,11.23
2022-12-23T13:58:14.120Z,9.95
2022-12-23T14:01:01.545Z,11.02
2022-12-23T14:03:52.944Z,10.90
2022-12-23T14:07:02.791Z,9.02
2022-12-23T14:09:53.209Z,11.13
2022-12-23T14:12:45.266Z,7.53
2022-12-23T14:15:45.164Z,9.65
2022-12-23T14:18:45.662Z,11.73
2022-12-23T14:21:40.520Z,8.45
2022-12-23T14:24:55.559Z,6.63
2022-12-23T14:28:04.140Z,8.50
2022-12-23T14:30:53.207Z,7.10
2022-12-23T14:33:43.920Z,6.32
2022-12-23T14:36:40.444Z,6.32
2022-12-23T14:39:49.542Z,7.82
2022-12-23T14:42:54.582Z,5.32
2022-12-23T14:45:48.576Z,4.63
2022-12-23T14:49:37.524Z,5.57
2022-12-23T14:52:14.423Z,7.75
2022-12-23T14:55:29.085Z,6.43
2022-12-23T15:01:08.938Z,6.45
2022-12-23T15:04:02.102Z,7.43
2022-12-23T15:06:54.072Z,6.93
2022-12-23T15:09:44.391Z,5.82
2022-12-23T15:12:33.820Z,6.85
2022-12-23T15:15:25.258Z,6.28
2022-12-23T15:18:20.182Z,4.97
2022-12-23T15:21:18.530Z,5.90
2022-12-23T15:24:07.928Z,5.20
2022-12-23T15:27:25.076Z,5.72
2022-12-23T15:30:05.002Z,5.45
2022-12-23T15:32:53.012Z,9.15
2022-12-23T15:35:46.977Z,8.23
2022-12-23T15:38:35.854Z,7.70
2022-12-23T15:41:31.604Z,7.07
2022-12-23T15:44:18.982Z,5.63
2022-12-23T15:47:05.723Z,8.63
2022-12-23T15:49:53.636Z,8.18
2022-12-23T15:52:40.134Z,7.65
2022-12-23T15:55:32.530Z,7.18
2022-12-23T15:58:21.345Z,7.43
2022-12-23T16:01:13.236Z,7.40
2022-12-23T16:04:01.392Z,7.70
2022-12-23T16:06:51.232Z,7.70
2022-12-23T16:09:55.038Z,8.93
2022-12-23T16:12:43.270Z,9.90
2022-12-23T16:15:39.660Z,12.40
2022-12-23T16:18:43.620Z,9.45
2022-12-23T16:21:16.578Z,11.82
2022-12-23T16:23:52.003Z,8.98
2022-12-23T16:26:22.112Z,10.00
2022-12-23T16:28:53.491Z,17.45
2022-12-23T16:31:23.157Z,13.82
2022-12-23T16:33:54.885Z,14.80
2022-12-23T16:36:34.481Z,17.30
2022-12-23T16:39:18.341Z,18.95
2022-12-23T16:41:47.323Z,19.10
2022-12-23T16:44:34.209Z,16.42
2022-12-23T16:47:26.804Z,17.13
2022-12-23T16:50:13.012Z,18.35
2022-12-23T16:52:59.711Z,19.65
2022-12-23T16:55:53.724Z,17.75
2022-12-23T16:58:41.751Z,17.23
2022-12-23T17:01:32.713Z,21.08
2022-12-23T17:04:19.512Z,17.20
2022-12-23T17:07:05.984Z,19.90
2022-12-23T17:09:52.287Z,14.80
2022-12-23T17:12:39.998Z,15.25
2022-12-23T17:15:34.421Z,14.15
2022-12-23T17:18:20.783Z,17.40
2022-12-23T17:21:07.949Z,16.08
2022-12-23T17:23:54.120Z,15.43
2022-12-23T17:26:40.424Z,16.33
2022-12-23T17:29:30.247Z,19.50
2022-12-23T17:32:16.510Z,16.95
2022-12-23T17:35:02.741Z,15.57
2022-12-23T17:37:49.678Z,17.50
2022-12-23T17:40:36.334Z,16.73
2022-12-23T17:43:23.427Z,18.83
2022-12-23T17:46:11.285Z,23.70
2022-12-23T17:48:57.379Z,20.33
2022-12-23T17:51:45.127Z,21.42
2022-12-23T17:54:40.028Z,18.48
2022-12-23T17:57:35.849Z,22.08
2022-12-23T18:00:31.955Z,22.98
2022-12-23T18:03:22.702Z,22.48
2022-12-23T18:06:09.771Z,20.58
2022-12-23T18:08:57.326Z,23.10
2022-12-23T18:11:50.677Z,18.33
2022-12-23T18:14:43.880Z,18.00
2022-12-23T18:17:33.805Z,18.75
2022-12-23T18:20:22.831Z,18.52
2022-12-23T18:23:14.091Z,19.65
2022-12-23T18:26:00.825Z,19.42
2022-12-23T18:28:47.221Z,21.02
2022-12-23T18:31:35.675Z,20.98
2022-12-23T18:34:22.027Z,20.65
2022-12-23T18:37:09.903Z,20.30
2022-12-23T18:39:56.362Z,23.25
2022-12-23T18:42:43.101Z,24.35
2022-12-23T18:45:42.489Z,20.30
2022-12-23T18:48:28.786Z,20.10
2022-12-23T18:51:15.082Z,20.00
2022-12-23T18:54:03.958Z,22.95
2022-12-23T18:56:50.273Z,23.75
2022-12-23T18:59:39.258Z,23.45
2022-12-23T19:02:25.896Z,19.10
2022-12-23T19:05:12.189Z,23.35
2022-12-23T19:07:58.630Z,19.73
2022-12-23T19:10:49.408Z,20.58
2022-12-23T19:13:36.088Z,17.50
2022-12-23T19:16:23.225Z,20.92
2022-12-23T19:19:10.089Z,21.38
2022-12-23T19:21:56.385Z,18.48
2022-12-23T19:25:03.775Z,17.77
2022-12-23T19:27:51.618Z,20.23
2022-12-23T19:30:38.561Z,22.35
2022-12-23T19:33:24.961Z,18.10
2022-12-23T19:36:11.563Z,20.95
2022-12-23T19:38:58.803Z,16.50
2022-12-23T19:41:45.986Z,25.80
2022-12-23T19:44:34.103Z,21.67
2022-12-23T19:47:23.624Z,22.38
2022-12-23T19:50:12.844Z,23.45
2022-12-23T19:52:59.361Z,26.33
2022-12-23T19:55:45.709Z,23.35
2022-12-23T19:58:32.154Z,26.92
2022-12-23T20:01:27.950Z,20.17
2022-12-23T20:04:15.513Z,23.83
2022-12-23T20:07:03.486Z,20.48
2022-12-23T20:09:49.946Z,18.60
2022-12-23T20:12:36.476Z,20.20
2022-12-23T20:15:23.444Z,25.27
2022-12-23T20:18:11.176Z,21.17
2022-12-23T20:20:57.542Z,21.50
2022-12-23T20:23:43.876Z,22.00
2022-12-23T20:26:31.312Z,21.92
2022-12-23T20:29:17.628Z,26.15
2022-12-23T20:32:03.989Z,27.13
2022-12-23T20:34:51.643Z,22.40
2022-12-23T20:37:38.349Z,22.38
2022-12-23T20:40:26.588Z,26.90
2022-12-23T20:43:15.355Z,24.45
2022-12-23T20:46:01.999Z,27.52
2022-12-23T20:48:49.947Z,24.25
2022-12-23T20:51:39.966Z,24.90
2022-12-23T20:54:32.052Z,26.15
2022-12-23T20:57:19.595Z,27.73
2022-12-23T21:00:06.064Z,21.90
2022-12-23T21:03:11.563Z,30.17
2022-12-23T21:05:58.035Z,27.73
2022-12-23T21:08:45.796Z,23.50
2022-12-23T21:11:31.969Z,27.65
2022-12-23T21:14:18.381Z,24.52
2022-12-23T21:17:04.679Z,21.52
2022-12-23T21:19:51.557Z,23.15
2022-12-23T21:22:38.319Z,29.10
2022-12-23T21:25:26.698Z,23.05
2022-12-23T21:28:12.937Z,27.45
2022-12-23T21:30:59.213Z,22.35
2022-12-23T21:33:45.552Z,22.17
2022-12-23T21:36:33.993Z,28.77
2022-12-23T21:39:21.476Z,26.50
2022-12-23T21:42:09.264Z,21.85
2022-12-23T21:44:58.610Z,21.40
2022-12-23T21:47:44.854Z,22.98
2022-12-23T21:50:31.067Z,21.88
2022-12-23T21:53:17.282Z,22.70
2022-12-23T21:56:03.494Z,21.85
2022-12-23T21:58:52.086Z,17.30
2022-12-23T22:01:39.540Z,21.35
2022-12-23T22:04:26.130Z,17.67
2022-12-23T22:07:12.394Z,15.73
2022-12-23T22:09:58.904Z,15.60
2022-12-23T22:12:45.167Z,16.85
2022-12-23T22:15:32.962Z,14.85
2022-12-23T22:18:19.242Z,15.75
2022-12-23T22:21:05.281Z,14.55
2022-12-23T22:23:52.053Z,14.88
2022-12-23T22:26:39.617Z,14.45
2022-12-23T22:29:26.003Z,14.57
2022-12-23T22:32:13.636Z,14.88
2022-12-23T22:34:59.764Z,16.50
2022-12-23T22:37:46.240Z,10.43
2022-12-23T22:40:32.446Z,13.18
2022-12-23T22:43:18.706Z,13.48
2022-12-23T22:46:05.655Z,13.00
2022-12-23T22:48:53.840Z,13.32
2022-12-23T22:51:42.071Z,13.55
2022-12-23T22:54:28.823Z,13.23
2022-12-23T22:57:15.461Z,13.13
2022-12-23T23:00:07.832Z,12.93
2022-12-23T23:02:58.363Z,11.60
2022-12-23T23:05:46.348Z,12.35
2022-12-23T23:08:32.644Z,13.07
2022-12-23T23:11:21.352Z,14.02
2022-12-23T23:14:07.607Z,14.00
2022-12-23T23:16:53.980Z,13.02
2022-12-23T23:19:40.168Z,13.65
2022-12-23T23:22:28.010Z,11.55
2022-12-23T23:25:14.275Z,15.23
2022-12-23T23:28:00.442Z,13.30
2022-12-23T23:30:46.777Z,10.60
2022-12-23T23:33:33.406Z,14.90
2022-12-23T23:36:19.898Z,12.95
2022-12-23T23:39:07.832Z,12.10
2022-12-23T23:41:54.515Z,8.80
2022-12-23T23:44:40.731Z,11.43
2022-12-23T23:47:27.301Z,12.65
2022-12-23T23:50:13.659Z,10.00
2022-12-23T23:52:59.979Z,9.30
2022-12-23T23:55:47.932Z,10.23
2022-12-23T23:58:34.588Z,10.98
